createdAt,value
2022-08-08T00:03:59.759Z,16.4
2022-08-08T00:08:59.968Z,16.3
2022-08-08T00:14:16.522Z,16.3
2022-08-08T00:19:00.513Z,16.2
2022-08-08T00:24:00.753Z,16.2
2022-08-08T00:29:01.429Z,16.1
2022-08-08T00:34:17.117Z,15.9
2022-08-08T00:39:01.535Z,15.9
2022-08-08T00:44:01.871Z,15.9
2022-08-08T00:54:13.856Z,15.9
2022-08-08T00:59:02.668Z,15.9
2022-08-08T01:04:04.275Z,15.7
2022-08-08T01:09:36.734Z,15.7
2022-08-08T01:14:03.265Z,15.6
2022-08-08T01:19:13.818Z,15.5
2022-08-08T01:24:13.593Z,15.4
2022-08-08T01:29:05.672Z,15.4
2022-08-08T01:34:04.185Z,15.4
2022-08-08T01:39:04.457Z,15.2
2022-08-08T01:44:04.666Z,15.1
2022-08-08T01:49:06.189Z,15.0
2022-08-08T01:55:45.007Z,14.8
2022-08-08T01:59:05.370Z,14.8
2022-08-08T02:04:05.602Z,14.8
2022-08-08T02:09:17.436Z,14.7
2022-08-08T02:14:08.007Z,14.6
2022-08-08T02:19:26.770Z,14.6
2022-08-08T02:24:06.459Z,14.5
2022-08-08T02:29:06.644Z,14.4
2022-08-08T02:34:09.128Z,14.3
2022-08-08T02:39:41.192Z,14.4
2022-08-08T02:44:38.658Z,14.3
2022-08-08T02:49:07.386Z,14.2
2022-08-08T02:54:07.549Z,14.1
2022-08-08T02:59:26.152Z,14.2
2022-08-08T03:05:03.122Z,14.2
2022-08-08T03:09:08.031Z,14.1
2022-08-08T03:16:00.544Z,14.0
2022-08-08T03:19:08.377Z,14.0
2022-08-08T03:24:08.592Z,13.9
2022-08-08T03:29:17.011Z,13.8
2022-08-08T03:34:08.961Z,13.8
2022-08-08T03:39:15.505Z,13.8
2022-08-08T03:49:57.633Z,13.6
2022-08-08T03:54:09.636Z,13.4
2022-08-08T03:59:09.779Z,13.5
2022-08-08T04:04:09.970Z,13.4
2022-08-08T04:09:11.336Z,13.4
2022-08-08T04:14:34.457Z,13.4
2022-08-08T04:19:23.935Z,13.3
2022-08-08T04:29:10.789Z,13.2
2022-08-08T04:34:10.885Z,13.1
2022-08-08T04:40:03.306Z,13.1
2022-08-08T04:44:11.220Z,13.1
2022-08-08T04:49:11.546Z,12.9
2022-08-08T04:54:38.274Z,13.0
2022-08-08T04:59:11.641Z,12.9
2022-08-08T05:04:13.791Z,13.0
2022-08-08T05:14:12.736Z,13.2
2022-08-08T05:20:09.080Z,13.3
2022-08-08T05:24:12.429Z,13.4
2022-08-08T05:29:12.577Z,13.4
2022-08-08T05:34:12.729Z,13.6
2022-08-08T05:39:13.081Z,13.8
2022-08-08T05:44:13.061Z,13.9
2022-08-08T05:49:13.184Z,14.1
2022-08-08T05:54:27.565Z,14.2
2022-08-08T05:59:14.065Z,14.1
2022-08-08T06:04:22.465Z,14.4
2022-08-08T06:09:59.013Z,14.6
2022-08-08T06:14:17.949Z,15.1
2022-08-08T06:19:16.449Z,15.4
2022-08-08T06:24:22.815Z,16.2
2022-08-08T06:29:26.452Z,17.8
2022-08-08T06:34:26.280Z,19.9
2022-08-08T06:39:17.522Z,21.2
2022-08-08T06:44:22.877Z,21.9
2022-08-08T06:49:16.282Z,23.1
2022-08-08T06:54:17.537Z,24.4
2022-08-08T06:59:17.282Z,25.1
2022-08-08T07:04:37.248Z,26.2
2022-08-08T07:09:20.814Z,27.1
2022-08-08T07:19:21.235Z,28.1
2022-08-08T07:24:20.441Z,28.1
2022-08-08T07:30:00.461Z,27.4
2022-08-08T07:34:31.340Z,27.1
2022-08-08T07:39:28.989Z,27.3
2022-08-08T07:44:40.570Z,27.1
2022-08-08T07:49:23.824Z,26.6
2022-08-08T07:54:26.633Z,25.7
2022-08-08T07:59:25.266Z,25.1
2022-08-08T08:04:26.140Z,25.1
2022-08-08T08:09:26.670Z,25.1
2022-08-08T08:14:29.576Z,25.0
2022-08-08T08:19:32.076Z,24.8
2022-08-08T08:24:30.887Z,24.7
2022-08-08T08:29:29.407Z,24.5
2022-08-08T08:34:32.259Z,24.4
2022-08-08T08:39:39.137Z,24.5
2022-08-08T08:44:31.495Z,24.3
2022-08-08T08:49:33.906Z,24.2
2022-08-08T09:00:01.602Z,24.4
2022-08-08T09:04:39.648Z,24.6
2022-08-08T09:14:35.534Z,24.4
2022-08-08T09:21:58.680Z,24.9
2022-08-08T09:24:36.613Z,25.4
2022-08-08T09:29:37.302Z,25.9
2022-08-08T09:34:37.993Z,26.1
2022-08-08T09:39:38.908Z,27.2
2022-08-08T09:44:39.672Z,28.0
2022-08-08T09:49:42.556Z,28.6
2022-08-08T09:54:41.206Z,29.4
2022-08-08T10:00:02.412Z,29.8
2022-08-08T10:04:47.335Z,29.6
2022-08-08T10:10:00.603Z,29.6
2022-08-08T10:19:57.659Z,30.2
2022-08-08T10:24:46.040Z,30.6
2022-08-08T10:29:58.963Z,30.1
2022-08-08T10:34:47.755Z,30.6
2022-08-08T10:39:54.760Z,29.9
2022-08-08T10:44:50.348Z,30.4
2022-08-08T10:50:02.258Z,30.8
2022-08-08T10:54:51.230Z,30.0
2022-08-08T10:59:52.123Z,30.2
2022-08-08T11:04:54.109Z,30.0
2022-08-08T11:09:54.062Z,30.1
2022-08-08T11:14:54.720Z,29.3
2022-08-08T11:19:55.554Z,29.4
2022-08-08T11:24:56.368Z,29.0
2022-08-08T11:30:18.628Z,29.0
2022-08-08T11:39:59.103Z,29.3
2022-08-08T11:44:59.610Z,29.3
2022-08-08T11:50:00.458Z,29.5
2022-08-08T11:55:01.286Z,29.5
2022-08-08T12:05:02.968Z,29.1
2022-08-08T12:10:08.825Z,29.4
2022-08-08T12:15:06.575Z,29.3
2022-08-08T12:25:06.192Z,29.5
2022-08-08T12:35:17.457Z,29.3
2022-08-08T12:40:08.761Z,30.2
2022-08-08T12:45:58.914Z,30.4
2022-08-08T12:50:10.432Z,30.2
2022-08-08T12:55:29.103Z,30.1
2022-08-08T13:00:14.574Z,29.8
2022-08-08T13:05:15.793Z,30.1
2022-08-08T13:10:13.872Z,30.2
2022-08-08T13:15:14.702Z,30.1
2022-08-08T13:20:15.580Z,30.1
2022-08-08T13:25:18.825Z,30.1
2022-08-08T13:30:21.118Z,30.3
2022-08-08T13:35:25.102Z,30.5
2022-08-08T13:40:26.650Z,30.6
2022-08-08T13:45:23.918Z,31.0
2022-08-08T13:50:37.317Z,31.1
2022-08-08T13:55:28.902Z,31.2
2022-08-08T14:00:23.060Z,31.5
2022-08-08T14:05:27.362Z,31.1
2022-08-08T14:10:32.930Z,31.2
2022-08-08T14:15:31.624Z,31.1
2022-08-08T14:20:55.988Z,31.0
2022-08-08T14:25:27.042Z,31.4
2022-08-08T14:30:27.988Z,30.9
2022-08-08T14:35:35.671Z,31.0
2022-08-08T14:40:29.976Z,31.0
2022-08-08T14:45:46.834Z,30.9
2022-08-08T14:50:38.254Z,31.1
2022-08-08T14:55:41.257Z,31.1
2022-08-08T15:00:33.466Z,31.2
2022-08-08T15:05:52.182Z,31.4
2022-08-08T15:10:35.232Z,31.0
2022-08-08T15:16:01.885Z,31.4
2022-08-08T15:20:38.977Z,31.3
2022-08-08T15:25:37.851Z,31.3
2022-08-08T15:30:38.776Z,31.2
2022-08-08T15:35:39.679Z,31.5
2022-08-08T15:40:40.593Z,31.5
2022-08-08T15:45:41.552Z,31.1
2022-08-08T15:50:42.445Z,31.2
2022-08-08T15:55:43.579Z,31.2
2022-08-08T16:00:49.538Z,31.1
2022-08-08T16:05:53.300Z,31.5
2022-08-08T16:13:05.030Z,31.8
2022-08-08T16:15:57.440Z,31.5
2022-08-08T16:20:51.102Z,31.3
2022-08-08T16:25:54.685Z,31.2
2022-08-08T16:30:49.778Z,31.3
2022-08-08T16:35:50.665Z,31.2
2022-08-08T16:40:51.650Z,31.3
2022-08-08T16:46:43.336Z,31.8
2022-08-08T16:50:53.670Z,32.4
2022-08-08T17:00:58.114Z,34.9
2022-08-08T17:05:57.374Z,36.9
2022-08-08T17:16:00.142Z,38.2
2022-08-08T17:21:01.569Z,39.4
2022-08-08T17:26:05.263Z,39.1
2022-08-08T17:31:39.603Z,39.1
2022-08-08T17:41:07.872Z,40.0
2022-08-08T17:46:08.790Z,39.8
2022-08-08T17:56:11.720Z,39.1
2022-08-08T18:01:13.209Z,38.4
2022-08-08T18:06:24.026Z,36.8
2022-08-08T18:11:16.635Z,34.3
2022-08-08T18:16:23.431Z,32.8
2022-08-08T18:21:24.993Z,31.2
2022-08-08T18:26:19.478Z,29.8
2022-08-08T18:31:20.529Z,29.1
2022-08-08T18:36:23.455Z,28.4
2022-08-08T18:41:51.130Z,27.8
2022-08-08T18:46:54.197Z,26.9
2022-08-08T18:51:48.482Z,26.2
2022-08-08T18:56:24.589Z,26.3
2022-08-08T19:02:25.150Z,25.9
2022-08-08T19:06:25.993Z,25.4
2022-08-08T19:11:26.704Z,25.0
2022-08-08T19:16:28.474Z,24.8
2022-08-08T19:21:30.599Z,24.3
2022-08-08T19:26:31.011Z,24.3
2022-08-08T19:36:29.815Z,23.8
2022-08-08T19:41:33.585Z,23.8
2022-08-08T19:46:33.236Z,23.4
2022-08-08T19:51:34.528Z,23.1
2022-08-08T19:56:40.140Z,22.9
2022-08-08T20:02:02.498Z,22.8
2022-08-08T20:06:33.221Z,22.6
2022-08-08T20:11:33.728Z,22.5
2022-08-08T20:16:37.586Z,22.2
2022-08-08T20:21:38.171Z,22.2
2022-08-08T20:32:07.390Z,22.0
2022-08-08T20:36:38.639Z,21.9
2022-08-08T20:41:36.789Z,21.9
2022-08-08T20:46:37.739Z,21.8
2022-08-08T20:51:39.777Z,21.6
2022-08-08T21:02:06.770Z,21.5
2022-08-08T21:06:52.505Z,21.6
2022-08-08T21:11:51.198Z,21.4
2022-08-08T21:16:40.100Z,21.5
2022-08-08T21:21:41.503Z,21.4
2022-08-08T21:26:40.995Z,21.6
2022-08-08T21:31:58.471Z,21.3
2022-08-08T21:36:41.952Z,21.2
2022-08-08T21:41:43.137Z,21.1
2022-08-08T21:48:01.300Z,20.9
2022-08-08T21:54:30.765Z,20.8
2022-08-08T21:56:43.782Z,20.4
2022-08-08T22:01:44.227Z,20.8
2022-08-08T22:06:44.674Z,20.4
2022-08-08T22:11:45.195Z,20.3
2022-08-08T22:16:46.782Z,20.2
2022-08-08T22:21:45.901Z,20.1
2022-08-08T22:27:01.143Z,20.1
2022-08-08T22:32:01.554Z,20.1
2022-08-08T22:36:47.213Z,19.8
2022-08-08T22:41:49.449Z,19.9
2022-08-08T22:46:47.937Z,19.7
2022-08-08T22:51:48.439Z,19.6
2022-08-08T23:02:03.437Z,19.2
2022-08-08T23:06:49.568Z,19.1
2022-08-08T23:12:18.085Z,18.9
2022-08-08T23:16:57.684Z,18.8
2022-08-08T23:26:53.304Z,18.6
2022-08-08T23:31:51.385Z,18.6
2022-08-08T23:36:51.834Z,18.5
2022-08-08T23:41:52.142Z,18.4
2022-08-08T23:49:01.307Z,18.2
2022-08-08T23:52:07.235Z,18.0
2022-08-08T23:56:53.530Z,17.9
